Time;durP1;ratioP1;P1;durP2;ratioP2;P2;SDS_P1;SDS_P2;PMS_P1;PMS_P2;Temp;Humidity;BMP_temperature;BMP_pressure;BME280_temperature;BME280_humidity;BME280_pressure;Samples;Min_cycle;Max_cycle;Signal;HPM_P1;HPM_P2
2022/05/25 00:00:43;;;;;;;15.98;5.90;;;;;;;;;;5105795;27;20482;-42
2022/05/25 00:03:09;;;;;;;19.45;5.45;;;;;;;;;;5116542;27;20043;-45
2022/05/25 00:05:35;;;;;;;17.40;5.72;;;;;;;;;;5114408;27;20085;-42
2022/05/25 00:08:00;;;;;;;14.90;6.45;;;;;;;;;;5107842;27;20044;-43
2022/05/25 00:10:26;;;;;;;25.00;5.65;;;;;;;;;;5106701;27;20061;-40
2022/05/25 00:12:51;;;;;;;12.05;5.90;;;;;;;;;;5112940;27;20786;-40
2022/05/25 00:15:17;;;;;;;7.75;3.67;;;;;;;;;;5113028;27;20039;-43
2022/05/25 00:17:42;;;;;;;10.50;2.95;;;;;;;;;;5111584;27;20509;-44
2022/05/25 00:20:08;;;;;;;17.55;3.40;;;;;;;;;;5120455;27;20035;-43
2022/05/25 00:22:40;;;;;;;7.75;3.13;;;;;;;;;;5112077;27;20036;-45
2022/05/25 00:25:06;;;;;;;6.15;2.67;;;;;;;;;;5106258;27;20039;-45
2022/05/25 00:27:31;;;;;;;3.45;2.03;;;;;;;;;;5113058;27;20036;-43
2022/05/25 00:29:56;;;;;;;3.33;1.83;;;;;;;;;;5112052;27;20062;-43
2022/05/25 00:32:22;;;;;;;4.45;2.45;;;;;;;;;;5116958;27;20443;-41
2022/05/25 00:34:48;;;;;;;9.25;2.38;;;;;;;;;;5119161;27;20104;-49
2022/05/25 00:37:13;;;;;;;5.38;1.88;;;;;;;;;;5111965;27;20064;-43
2022/05/25 00:39:38;;;;;;;5.80;1.55;;;;;;;;;;5118078;27;20039;-46
2022/05/25 00:42:04;;;;;;;6.88;2.00;;;;;;;;;;5110602;27;20691;-43
2022/05/25 00:44:29;;;;;;;3.17;0.80;;;;;;;;;;5111561;27;20046;-43
2022/05/25 00:46:55;;;;;;;1.48;0.80;;;;;;;;;;5117541;27;20520;-44
2022/05/25 00:49:27;;;;;;;4.18;1.20;;;;;;;;;;5117031;27;20039;-42
2022/05/25 00:52:01;;;;;;;5.57;2.05;;;;;;;;;;5108933;27;20067;-45
2022/05/25 00:54:35;;;;;;;2.67;0.90;;;;;;;;;;5106609;27;20040;-40
2022/05/25 00:57:04;;;;;;;3.25;0.85;;;;;;;;;;5116715;27;20070;-44
2022/05/25 00:59:32;;;;;;;6.03;2.70;;;;;;;;;;5109344;27;20053;-40
2022/05/25 01:01:57;;;;;;;6.18;1.40;;;;;;;;;;5116677;27;20158;-43
2022/05/25 01:04:23;;;;;;;2.80;1.25;;;;;;;;;;5116547;27;20127;-40
2022/05/25 01:07:18;;;;;;;18.40;2.00;;;;;;;;;;5105617;27;20138;-40
2022/05/25 01:09:59;;;;;;;5.57;0.32;;;;;;;;;;5064734;28;20123;-43
2022/05/25 01:12:48;;;;;;;3.13;0.67;;;;;;;;;;5116534;27;20070;-44
2022/05/25 01:15:31;;;;;;;3.33;1.55;;;;;;;;;;5118448;27;20366;-42
2022/05/25 01:18:09;;;;;;;0.55;0.30;;;;;;;;;;5107818;27;20527;-43
2022/05/25 01:20:52;;;;;;;0.55;0.30;;;;;;;;;;5107485;27;20106;-44
2022/05/25 01:23:26;;;;;;;0.57;0.43;;;;;;;;;;5107494;27;20047;-43
2022/05/25 01:25:57;;;;;;;1.90;0.50;;;;;;;;;;5108508;27;20040;-40
2022/05/25 01:28:22;;;;;;;;;;;;;;;;;;5111205;27;20091;-41
2022/05/25 01:30:50;;;;;;;4.43;1.03;;;;;;;;;;5100557;27;20292;-42
2022/05/25 01:33:21;;;;;;;1.77;1.30;;;;;;;;;;5106966;27;20047;-41
2022/05/25 01:35:59;;;;;;;0.20;0.20;;;;;;;;;;5113278;27;20067;-40
2022/05/25 01:38:39;;;;;;;1.40;0.52;;;;;;;;;;5113837;27;20061;-41
2022/05/25 01:41:31;;;;;;;2.05;0.57;;;;;;;;;;5115391;27;20044;-44
2022/05/25 01:44:01;;;;;;;;;;;;;;;;;;5113737;27;20159;-42
2022/05/25 01:46:26;;;;;;;0.63;0.52;;;;;;;;;;5116911;27;19912;-40
2022/05/25 01:48:52;;;;;;;0.55;0.25;;;;;;;;;;5116293;27;20115;-41
2022/05/25 01:51:22;;;;;;;2.85;0.25;;;;;;;;;;5119014;27;20131;-41
2022/05/25 01:53:52;;;;;;;0.45;0.28;;;;;;;;;;5117805;27;20043;-41
2022/05/25 01:56:18;;;;;;;1.63;0.47;;;;;;;;;;5116384;27;20048;-44
2022/05/25 01:58:46;;;;;;;1.98;0.30;;;;;;;;;;5115063;27;20048;-45
2022/05/25 02:01:11;;;;;;;1.08;0.98;;;;;;;;;;5115405;27;20035;-45
2022/05/25 02:06:39;;;;;;;0.93;0.45;;;;;;;;;;5115131;27;20098;-41
2022/05/25 02:09:23;;;;;;;4.53;0.35;;;;;;;;;;5108762;27;20126;-41
2022/05/25 02:11:50;;;;;;;0.10;0.10;;;;;;;;;;5109621;27;20500;-40
2022/05/25 02:14:21;;;;;;;0.20;0.15;;;;;;;;;;5113032;27;20066;-43
2022/05/25 02:16:46;;;;;;;;;;;;;;;;;;5114319;27;20051;-46
2022/05/25 02:19:24;;;;;;;1.90;0.50;;;;;;;;;;5116546;27;19964;-41
2022/05/25 02:21:54;;;;;;;2.03;0.20;;;;;;;;;;5113022;27;20035;-44
2022/05/25 02:24:25;;;;;;;0.43;0.10;;;;;;;;;;5108677;27;20040;-41
2022/05/25 02:26:58;;;;;;;1.17;0.55;;;;;;;;;;5114555;27;20400;-43
2022/05/25 02:29:26;;;;;;;1.25;0.43;;;;;;;;;;5112796;27;20054;-42
2022/05/25 02:32:02;;;;;;;0.47;0.25;;;;;;;;;;5110033;27;20591;-43
2022/05/25 02:34:27;;;;;;;3.30;0.65;;;;;;;;;;5102998;27;20043;-44
2022/05/25 02:36:53;;;;;;;0.40;0.10;;;;;;;;;;5112577;28;20503;-43
2022/05/25 02:39:20;;;;;;;1.85;0.52;;;;;;;;;;5116190;28;20032;-45
2022/05/25 02:41:50;;;;;;;1.13;0.40;;;;;;;;;;5115155;28;20082;-43
2022/05/25 02:44:15;;;;;;;2.47;1.52;;;;;;;;;;5110369;27;20074;-41
2022/05/25 02:46:41;;;;;;;13.18;2.78;;;;;;;;;;5111451;27;20184;-40
2022/05/25 02:49:07;;;;;;;12.30;4.55;;;;;;;;;;5103737;28;20412;-40
2022/05/25 02:51:33;;;;;;;3.70;1.35;;;;;;;;;;5103945;28;20044;-40
2022/05/25 02:53:58;;;;;;;4.72;0.85;;;;;;;;;;5100391;27;20465;-41
2022/05/25 02:56:23;;;;;;;5.30;1.02;;;;;;;;;;5104710;28;20555;-41
2022/05/25 02:58:49;;;;;;;5.45;1.42;;;;;;;;;;5111178;27;20482;-43
2022/05/25 03:01:14;;;;;;;8.70;1.35;;;;;;;;;;5113807;27;20779;-43
2022/05/25 03:03:39;;;;;;;3.70;1.33;;;;;;;;;;5118152;28;20061;-40
2022/05/25 03:06:05;;;;;;;3.13;0.70;;;;;;;;;;5116605;27;20479;-40
2022/05/25 03:08:31;;;;;;;2.53;0.70;;;;;;;;;;5112207;27;20040;-43
2022/05/25 03:10:56;;;;;;;4.38;0.70;;;;;;;;;;5111492;28;20581;-42
2022/05/25 03:13:22;;;;;;;3.22;1.38;;;;;;;;;;5107673;28;20042;-42
2022/05/25 03:15:47;;;;;;;2.55;1.20;;;;;;;;;;5103702;27;20234;-41
2022/05/25 03:18:12;;;;;;;2.15;0.70;;;;;;;;;;5107365;28;20123;-41
2022/05/25 03:20:37;;;;;;;4.72;0.65;;;;;;;;;;5103224;27;20381;-43
2022/05/25 03:23:03;;;;;;;8.88;2.05;;;;;;;;;;5108740;28;20055;-41
2022/05/25 03:25:28;;;;;;;3.17;0.85;;;;;;;;;;5114109;28;20051;-39
2022/05/25 03:27:54;;;;;;;0.85;0.40;;;;;;;;;;5113933;28;20312;-41
2022/05/25 03:30:20;;;;;;;4.53;1.20;;;;;;;;;;5115217;28;20051;-44
2022/05/25 03:32:46;;;;;;;2.13;0.80;;;;;;;;;;5115148;27;20106;-44
2022/05/25 03:35:11;;;;;;;3.75;1.23;;;;;;;;;;5119718;27;20788;-43
2022/05/25 03:37:37;;;;;;;10.85;1.15;;;;;;;;;;5118375;27;20055;-41
2022/05/25 03:40:03;;;;;;;4.35;1.45;;;;;;;;;;5108682;27;20047;-44
2022/05/25 03:42:29;;;;;;;2.67;1.05;;;;;;;;;;5115799;27;20046;-40
2022/05/25 03:44:54;;;;;;;0.50;0.50;;;;;;;;;;5118329;27;20055;-43
2022/05/25 03:47:19;;;;;;;6.45;0.52;;;;;;;;;;5120548;27;20108;-46
2022/05/25 03:49:46;;;;;;;0.50;0.20;;;;;;;;;;5117240;27;20063;-44
2022/05/25 03:52:11;;;;;;;1.17;0.32;;;;;;;;;;5116484;27;20051;-40
2022/05/25 03:54:37;;;;;;;1.50;0.45;;;;;;;;;;5119238;27;20409;-41
2022/05/25 03:57:03;;;;;;;6.80;0.52;;;;;;;;;;5112909;27;20404;-43
2022/05/25 03:59:29;;;;;;;7.90;1.65;;;;;;;;;;5110131;27;20039;-41
2022/05/25 04:01:54;;;;;;;1.90;0.95;;;;;;;;;;5105381;27;20031;-41
2022/05/25 04:04:19;;;;;;;1.73;0.38;;;;;;;;;;5116901;27;20089;-41
2022/05/25 04:06:45;;;;;;;0.22;0.20;;;;;;;;;;5114908;27;20043;-43
2022/05/25 04:09:10;;;;;;;0.70;0.15;;;;;;;;;;5117111;27;20126;-45
2022/05/25 04:11:36;;;;;;;6.65;0.45;;;;;;;;;;5120794;27;20406;-43
2022/05/25 04:14:02;;;;;;;2.47;0.52;;;;;;;;;;5117922;27;20051;-40
2022/05/25 04:16:27;;;;;;;2.45;0.57;;;;;;;;;;5118158;27;20507;-41
2022/05/25 04:18:52;;;;;;;1.38;0.60;;;;;;;;;;5120085;27;20035;-41
2022/05/25 04:21:18;;;;;;;6.85;0.93;;;;;;;;;;5125543;27;20047;-43
2022/05/25 04:23:43;;;;;;;1.17;0.43;;;;;;;;;;5112653;27;20170;-43
2022/05/25 04:26:09;;;;;;;4.97;1.33;;;;;;;;;;5111084;27;20072;-46
2022/05/25 04:28:34;;;;;;;4.13;1.05;;;;;;;;;;5115679;27;20562;-43
2022/05/25 04:30:59;;;;;;;2.58;0.52;;;;;;;;;;5121160;27;20072;-40
2022/05/25 04:33:29;;;;;;;12.98;2.08;;;;;;;;;;5122999;27;20055;-43
2022/05/25 04:35:54;;;;;;;7.15;2.15;;;;;;;;;;5117284;27;20047;-41
2022/05/25 04:38:19;;;;;;;2.30;0.73;;;;;;;;;;5117307;27;20537;-45
2022/05/25 04:40:45;;;;;;;0.73;0.73;;;;;;;;;;5109809;27;20055;-45
2022/05/25 04:43:12;;;;;;;8.77;1.50;;;;;;;;;;5113509;27;20405;-44
2022/05/25 04:45:38;;;;;;;2.78;0.75;;;;;;;;;;5112950;27;20122;-42
2022/05/25 04:48:04;;;;;;;4.00;1.17;;;;;;;;;;5116982;27;20046;-43
2022/05/25 04:50:30;;;;;;;5.03;1.00;;;;;;;;;;5119970;27;20043;-45
2022/05/25 04:52:59;;;;;;;11.68;1.60;;;;;;;;;;5119679;27;20031;-43
2022/05/25 04:58:18;;;;;;;4.28;0.93;;;;;;;;;;5110067;27;20075;-43
2022/05/25 05:00:43;;;;;;;2.72;1.15;;;;;;;;;;5116833;27;20051;-43
2022/05/25 05:03:09;;;;;;;10.13;0.65;;;;;;;;;;5112821;27;20605;-45
2022/05/25 05:05:34;;;;;;;0.98;0.65;;;;;;;;;;5114025;27;20043;-46
2022/05/25 05:07:59;;;;;;;2.53;1.08;;;;;;;;;;5108608;27;20043;-44
2022/05/25 05:10:25;;;;;;;5.32;0.68;;;;;;;;;;5113469;27;20535;-41
2022/05/25 05:12:50;;;;;;;2.40;1.58;;;;;;;;;;5119431;27;20055;-44
2022/05/25 05:15:15;;;;;;;4.88;0.55;;;;;;;;;;5122833;27;20542;-41
2022/05/25 05:17:41;;;;;;;8.70;2.17;;;;;;;;;;5116810;27;20044;-42
2022/05/25 05:20:07;;;;;;;1.05;0.65;;;;;;;;;;5119277;27;20120;-45
2022/05/25 05:22:32;;;;;;;1.83;0.85;;;;;;;;;;5117162;27;20040;-44
2022/05/25 05:24:57;;;;;;;2.92;1.45;;;;;;;;;;5119181;27;20066;-42
2022/05/25 05:27:23;;;;;;;1.67;0.80;;;;;;;;;;5115882;27;20071;-41
2022/05/25 05:29:48;;;;;;;1.92;0.90;;;;;;;;;;5119528;27;20047;-44
2022/05/25 05:32:13;;;;;;;7.03;1.55;;;;;;;;;;5120573;27;20039;-43
2022/05/25 05:34:39;;;;;;;1.05;0.77;;;;;;;;;;5118614;27;20050;-42
2022/05/25 05:37:07;;;;;;;0.65;0.25;;;;;;;;;;5114822;27;20035;-43
2022/05/25 05:39:34;;;;;;;1.00;0.40;;;;;;;;;;5117371;27;20050;-46
2022/05/25 05:42:03;;;;;;;0.95;0.60;;;;;;;;;;5120496;27;20027;-44
2022/05/25 05:44:30;;;;;;;0.47;0.32;;;;;;;;;;5099511;28;20039;-45
2022/05/25 05:46:57;;;;;;;1.52;0.40;;;;;;;;;;5101684;27;20040;-43
2022/05/25 05:49:22;;;;;;;1.50;0.82;;;;;;;;;;5113816;27;20515;-46
2022/05/25 05:51:47;;;;;;;1.50;1.08;;;;;;;;;;5106140;27;20055;-44
2022/05/25 05:54:13;;;;;;;1.70;0.73;;;;;;;;;;5108816;27;20060;-45
2022/05/25 05:56:38;;;;;;;4.47;1.08;;;;;;;;;;5111633;27;20044;-43
2022/05/25 05:59:04;;;;;;;1.05;0.65;;;;;;;;;;5107869;27;20521;-47
2022/05/25 06:01:29;;;;;;;3.78;3.38;;;;;;;;;;5110998;27;20050;-43
2022/05/25 06:03:55;;;;;;;9.48;2.10;;;;;;;;;;5115686;27;20039;-41
2022/05/25 06:06:20;;;;;;;7.55;1.58;;;;;;;;;;5119499;27;20138;-42
2022/05/25 06:08:48;;;;;;;2.25;1.17;;;;;;;;;;5117754;27;20050;-41
2022/05/25 06:11:14;;;;;;;1.52;0.98;;;;;;;;;;5115935;27;20593;-52
2022/05/25 06:13:40;;;;;;;9.45;2.47;;;;;;;;;;5114911;27;20076;-54
2022/05/25 06:21:33;;;;;;;11.27;4.47;;;;;;;;;;5113871;27;20039;-52
2022/05/25 06:23:59;;;;;;;5.97;3.35;;;;;;;;;;5106062;27;20119;-52
2022/05/25 06:26:27;;;;;;;5.32;3.90;;;;;;;;;;5120628;27;20122;-52
2022/05/25 06:28:53;;;;;;;10.80;4.70;;;;;;;;;;5115600;27;20043;-52
2022/05/25 06:31:19;;;;;;;14.30;6.53;;;;;;;;;;5114981;27;20047;-53
2022/05/25 06:33:45;;;;;;;5.45;2.85;;;;;;;;;;5112986;27;20230;-52
2022/05/25 06:36:11;;;;;;;17.23;4.40;;;;;;;;;;5110567;27;20135;-51
2022/05/25 06:38:36;;;;;;;9.80;4.70;;;;;;;;;;5112791;28;20121;-54
2022/05/25 06:41:02;;;;;;;7.65;5.13;;;;;;;;;;5116674;28;20150;-54
2022/05/25 06:43:27;;;;;;;20.70;4.75;;;;;;;;;;5118050;28;20047;-56
2022/05/25 06:45:52;;;;;;;8.77;2.35;;;;;;;;;;5120711;28;20035;-52
2022/05/25 06:48:17;;;;;;;8.93;3.75;;;;;;;;;;5118332;28;20527;-49
2022/05/25 06:50:46;;;;;;;16.17;4.05;;;;;;;;;;5119590;28;20047;-52
2022/05/25 06:53:11;;;;;;;9.18;3.67;;;;;;;;;;5119722;28;20096;-54
2022/05/25 06:55:37;;;;;;;22.35;4.85;;;;;;;;;;5114374;28;20040;-55
2022/05/25 06:58:02;;;;;;;13.82;3.05;;;;;;;;;;5117319;28;20058;-49
2022/05/25 07:00:27;;;;;;;15.50;5.03;;;;;;;;;;5123137;28;20107;-52
2022/05/25 07:02:53;;;;;;;18.00;3.83;;;;;;;;;;5116665;28;20051;-55
2022/05/25 07:05:19;;;;;;;17.75;4.40;;;;;;;;;;5114486;28;20053;-55
2022/05/25 07:07:44;;;;;;;5.95;3.13;;;;;;;;;;5119441;28;20047;-54
2022/05/25 07:10:09;;;;;;;14.15;2.45;;;;;;;;;;5119031;27;20804;-54
2022/05/25 07:12:35;;;;;;;4.90;3.45;;;;;;;;;;5121972;27;20039;-54
2022/05/25 07:15:00;;;;;;;8.50;3.13;;;;;;;;;;5119488;27;20075;-54
2022/05/25 07:17:25;;;;;;;20.25;3.33;;;;;;;;;;5124924;27;20464;-56
2022/05/25 07:19:51;;;;;;;7.43;2.42;;;;;;;;;;5124412;27;20043;-56
2022/05/25 07:22:16;;;;;;;6.32;2.03;;;;;;;;;;5118922;27;20047;-56
2022/05/25 07:24:41;;;;;;;11.32;2.42;;;;;;;;;;5094676;28;20035;-54
2022/05/25 07:27:07;;;;;;;3.58;1.85;;;;;;;;;;5118000;27;20565;-54
2022/05/25 07:29:32;;;;;;;1.80;0.70;;;;;;;;;;5117838;27;20055;-51
2022/05/25 07:32:02;;;;;;;11.43;3.08;;;;;;;;;;5120424;27;20071;-55
2022/05/25 07:34:29;;;;;;;18.73;2.30;;;;;;;;;;5122399;27;20111;-54
2022/05/25 07:37:02;;;;;;;6.70;3.47;;;;;;;;;;5119832;27;20107;-55
2022/05/25 07:39:36;;;;;;;3.42;2.17;;;;;;;;;;5119527;27;20038;-55
2022/05/25 07:42:03;;;;;;;6.68;4.50;;;;;;;;;;5120460;27;20134;-55
2022/05/25 07:44:30;;;;;;;6.50;2.75;;;;;;;;;;5120640;27;20053;-56
2022/05/25 07:46:56;;;;;;;11.77;4.40;;;;;;;;;;5114878;27;20499;-56
2022/05/25 07:49:23;;;;;;;7.72;4.13;;;;;;;;;;5117149;27;20059;-53
2022/05/25 07:51:49;;;;;;;35.85;5.13;;;;;;;;;;5111859;27;20051;-54
2022/05/25 07:54:14;;;;;;;8.23;4.90;;;;;;;;;;5102292;27;20116;-56
2022/05/25 07:56:39;;;;;;;4.38;3.33;;;;;;;;;;5120128;27;20057;-55
2022/05/25 07:59:07;;;;;;;5.70;3.38;;;;;;;;;;5112463;27;20031;-55
2022/05/25 08:07:05;;;;;;;6.20;1.77;;;;;;;;;;5096839;27;20085;-56
2022/05/25 08:09:31;;;;;;;8.30;2.92;;;;;;;;;;5114162;27;20047;-55
2022/05/25 08:11:56;;;;;;;5.80;1.95;;;;;;;;;;5106955;27;20632;-55
2022/05/25 08:14:25;;;;;;;1.98;1.08;;;;;;;;;;5111714;27;20047;-55
2022/05/25 08:16:50;;;;;;;2.30;1.67;;;;;;;;;;5117238;27;20477;-54
2022/05/25 08:19:15;;;;;;;3.97;2.08;;;;;;;;;;5106963;27;20041;-52
2022/05/25 08:21:41;;;;;;;10.88;2.08;;;;;;;;;;5112758;27;20443;-55
2022/05/25 08:24:06;;;;;;;1.27;0.57;;;;;;;;;;5108616;27;20547;-54
2022/05/25 08:26:31;;;;;;;2.05;1.05;;;;;;;;;;5112992;27;20093;-53
2022/05/25 08:28:57;;;;;;;12.07;1.23;;;;;;;;;;5123118;27;20511;-56
2022/05/25 08:31:22;;;;;;;6.88;2.85;;;;;;;;;;5115669;27;20047;-55
2022/05/25 08:33:47;;;;;;;1.08;0.50;;;;;;;;;;5118765;27;20042;-56
2022/05/25 08:36:13;;;;;;;12.25;5.88;;;;;;;;;;5121387;27;20047;-55
2022/05/25 08:38:38;;;;;;;21.90;4.55;;;;;;;;;;5119489;27;20084;-57
2022/05/25 08:41:03;;;;;;;2.35;1.52;;;;;;;;;;5117962;27;20104;-57
2022/05/25 08:43:36;;;;;;;4.60;1.50;;;;;;;;;;5121998;27;20272;-56
2022/05/25 08:46:03;;;;;;;3.63;0.93;;;;;;;;;;5118569;27;20055;-55
2022/05/25 08:48:29;;;;;;;5.47;1.17;;;;;;;;;;5106291;27;20504;-56
2022/05/25 08:51:01;;;;;;;8.23;2.00;;;;;;;;;;5113823;27;20055;-56
2022/05/25 08:53:27;;;;;;;1.90;1.48;;;;;;;;;;5117946;27;20067;-56
2022/05/25 08:55:52;;;;;;;5.50;1.45;;;;;;;;;;5107765;27;20074;-56
2022/05/25 08:58:18;;;;;;;7.22;2.33;;;;;;;;;;5112116;27;20067;-57
2022/05/25 09:00:46;;;;;;;9.35;2.45;;;;;;;;;;5115999;27;20032;-56
2022/05/25 09:03:30;;;;;;;6.28;2.03;;;;;;;;;;5122476;27;20074;-55
2022/05/25 09:06:14;;;;;;;5.18;1.45;;;;;;;;;;5121441;27;20126;-57
2022/05/25 09:08:53;;;;;;;4.95;1.65;;;;;;;;;;5118222;27;20058;-56
2022/05/25 09:11:29;;;;;;;4.22;1.40;;;;;;;;;;5121271;27;20047;-57
2022/05/25 09:14:21;;;;;;;11.27;2.30;;;;;;;;;;5124596;27;20105;-57
2022/05/25 09:16:48;;;;;;;14.27;1.30;;;;;;;;;;5096599;27;20075;-57
2022/05/25 09:19:17;;;;;;;1.45;0.70;;;;;;;;;;5110757;27;20042;-56
2022/05/25 09:21:52;;;;;;;9.18;1.80;;;;;;;;;;5105729;27;20040;-56
2022/05/25 09:24:19;;;;;;;5.07;1.00;;;;;;;;;;5107467;27;20038;-56
2022/05/25 09:26:45;;;;;;;4.32;1.77;;;;;;;;;;5106129;27;20043;-55
2022/05/25 09:29:11;;;;;;;2.05;1.00;;;;;;;;;;5111394;27;20044;-56
2022/05/25 09:31:40;;;;;;;7.40;1.83;;;;;;;;;;5117141;27;20039;-55
2022/05/25 09:34:08;;;;;;;1.80;1.15;;;;;;;;;;5117658;27;20035;-57
2022/05/25 09:36:38;;;;;;;0.95;0.63;;;;;;;;;;5118479;27;20173;-55
2022/05/25 09:39:13;;;;;;;2.78;0.95;;;;;;;;;;5119871;27;20074;-57
2022/05/25 09:41:40;;;;;;;4.28;1.17;;;;;;;;;;5118154;27;20142;-56
2022/05/25 09:44:06;;;;;;;0.75;0.30;;;;;;;;;;5121836;27;20039;-56
2022/05/25 09:46:36;;;;;;;6.05;1.40;;;;;;;;;;5116027;27;20528;-57
2022/05/25 09:49:03;;;;;;;7.75;1.88;;;;;;;;;;5111938;27;20047;-56
2022/05/25 09:51:50;;;;;;;7.20;2.22;;;;;;;;;;5119583;27;21030;-54
2022/05/25 09:54:16;;;;;;;9.50;2.08;;;;;;;;;;5109801;27;20027;-57
2022/05/25 09:56:50;;;;;;;3.30;1.73;;;;;;;;;;5111748;27;20131;-56
2022/05/25 09:59:24;;;;;;;7.28;2.17;;;;;;;;;;5112222;27;20123;-57
2022/05/25 10:01:50;;;;;;;2.65;0.80;;;;;;;;;;5110849;27;20434;-56
2022/05/25 10:04:33;;;;;;;1.40;0.77;;;;;;;;;;5116087;27;20097;-56
2022/05/25 10:06:59;;;;;;;2.78;1.02;;;;;;;;;;5121725;27;20526;-56
2022/05/25 10:09:26;;;;;;;10.20;2.20;;;;;;;;;;5116314;27;20126;-56
2022/05/25 10:11:55;;;;;;;3.13;1.58;;;;;;;;;;5109665;27;20047;-57
2022/05/25 10:14:21;;;;;;;10.50;0.93;;;;;;;;;;5103629;27;20561;-55
2022/05/25 10:16:46;;;;;;;6.05;1.80;;;;;;;;;;5113764;27;20052;-55
2022/05/25 10:19:13;;;;;;;2.80;1.00;;;;;;;;;;5114208;27;20585;-55
2022/05/25 10:21:39;;;;;;;8.52;1.45;;;;;;;;;;5117075;27;20122;-56
2022/05/25 10:24:15;;;;;;;2.47;0.73;;;;;;;;;;5109639;27;20139;-55
2022/05/25 10:26:46;;;;;;;5.15;1.98;;;;;;;;;;5114022;27;20092;-56
2022/05/25 10:36:45;;;;;;;2.33;0.98;;;;;;;;;;5114930;27;20055;-56
2022/05/25 10:37:36;;;;;;;7.00;1.20;;;;;;;;;;5115383;27;20090;-56
2022/05/25 10:40:04;;;;;;;14.57;2.13;;;;;;;;;;5111495;27;20028;-54
2022/05/25 10:42:45;;;;;;;4.38;2.08;;;;;;;;;;5109738;27;20035;-56
2022/05/25 10:45:10;;;;;;;;;;;;;;;;;;5118948;28;20095;-56
2022/05/25 10:47:38;;;;;;;3.70;1.50;;;;;;;;;;5117314;28;19915;-56
2022/05/25 10:50:08;;;;;;;2.28;0.80;;;;;;;;;;5121563;28;20048;-56
2022/05/25 10:52:36;;;;;;;4.68;1.73;;;;;;;;;;5116941;28;20066;-56
2022/05/25 10:55:05;;;;;;;1.73;1.38;;;;;;;;;;5116246;27;20210;-55
2022/05/25 10:57:33;;;;;;;2.08;0.68;;;;;;;;;;5111245;28;20044;-56
2022/05/25 11:00:08;;;;;;;3.85;0.95;;;;;;;;;;5101011;28;20047;-56
2022/05/25 11:02:33;;;;;;;7.72;1.90;;;;;;;;;;5102093;27;20074;-56
2022/05/25 11:05:17;;;;;;;5.15;1.02;;;;;;;;;;5109859;27;20081;-57
2022/05/25 11:07:43;;;;;;;11.75;2.85;;;;;;;;;;5112186;28;20051;-54
2022/05/25 11:10:11;;;;;;;7.25;1.48;;;;;;;;;;5116998;28;20102;-55
2022/05/25 11:12:52;;;;;;;2.75;1.23;;;;;;;;;;5115882;28;20066;-55
2022/05/25 11:15:23;;;;;;;8.90;1.23;;;;;;;;;;5115218;28;20051;-55
2022/05/25 11:17:52;;;;;;;3.42;1.70;;;;;;;;;;5118872;28;20521;-54
2022/05/25 11:20:25;;;;;;;9.45;2.03;;;;;;;;;;5099628;28;20415;-54
2022/05/25 11:22:53;;;;;;;2.78;0.82;;;;;;;;;;5114710;28;20066;-55
2022/05/25 11:25:19;;;;;;;4.22;0.98;;;;;;;;;;5113428;27;20083;-56
2022/05/25 11:27:54;;;;;;;4.35;1.13;;;;;;;;;;5112014;28;20077;-55
2022/05/25 11:30:22;;;;;;;8.60;1.80;;;;;;;;;;5101831;28;20052;-56
2022/05/25 11:33:02;;;;;;;8.05;2.50;;;;;;;;;;5117176;28;20050;-54
2022/05/25 11:35:48;;;;;;;18.17;1.80;;;;;;;;;;5119153;27;20096;-55
2022/05/25 11:38:32;;;;;;;7.00;2.67;;;;;;;;;;5102075;27;20784;-55
2022/05/25 11:40:57;;;;;;;16.83;2.70;;;;;;;;;;5114570;28;20457;-55
2022/05/25 11:43:41;;;;;;;3.63;1.90;;;;;;;;;;5116008;28;20503;-56
2022/05/25 11:46:07;;;;;;;3.45;1.20;;;;;;;;;;5115116;28;20581;-64
2022/05/25 11:48:34;;;;;;;3.45;1.33;;;;;;;;;;5115547;28;20047;-62
2022/05/25 11:51:02;;;;;;;2.47;0.95;;;;;;;;;;5118724;28;20408;-61
2022/05/25 11:53:27;;;;;;;1.52;0.75;;;;;;;;;;5116336;28;20461;-60
2022/05/25 11:56:22;;;;;;;3.35;1.10;;;;;;;;;;5117539;27;20127;-61
2022/05/25 11:59:14;;;;;;;1.30;0.47;;;;;;;;;;5093688;27;20554;-64
2022/05/25 12:01:42;;;;;;;4.65;1.63;;;;;;;;;;5118207;27;20688;-59
2022/05/25 12:04:26;;;;;;;4.18;1.80;;;;;;;;;;5107920;27;20043;-59
2022/05/25 12:06:57;;;;;;;6.03;1.38;;;;;;;;;;5105454;27;20526;-48
2022/05/25 12:09:37;;;;;;;2.15;0.90;;;;;;;;;;5111752;27;20115;-53
2022/05/25 12:12:09;;;;;;;5.95;2.47;;;;;;;;;;5116686;27;20119;-53
2022/05/25 12:14:50;;;;;;;0.82;0.70;;;;;;;;;;5115025;27;20104;-51
2022/05/25 12:17:15;;;;;;;3.05;2.17;;;;;;;;;;5117361;27;20150;-52
2022/05/25 12:19:42;;;;;;;8.23;1.77;;;;;;;;;;5117882;27;20149;-52
2022/05/25 12:22:13;;;;;;;3.67;1.65;;;;;;;;;;5119349;27;20139;-53
2022/05/25 12:24:40;;;;;;;4.32;1.70;;;;;;;;;;5118329;27;20052;-53
2022/05/25 12:27:09;;;;;;;1.38;0.90;;;;;;;;;;5119202;27;20046;-54
2022/05/25 12:29:36;;;;;;;3.03;0.90;;;;;;;;;;5119262;27;20075;-54
2022/05/25 12:32:02;;;;;;;2.03;0.63;;;;;;;;;;5111258;27;20102;-52
2022/05/25 12:34:31;;;;;;;8.20;1.60;;;;;;;;;;5107780;27;20048;-55
2022/05/25 12:36:57;;;;;;;2.45;1.00;;;;;;;;;;5115718;27;20032;-47
2022/05/25 12:39:41;;;;;;;8.65;2.10;;;;;;;;;;5114409;27;20054;-52
2022/05/25 12:42:21;;;;;;;2.78;1.08;;;;;;;;;;5117581;27;20047;-51
2022/05/25 12:50:33;;;;;;;3.83;1.90;;;;;;;;;;5117474;27;20058;-55
2022/05/25 12:53:16;;;;;;;10.70;2.20;;;;;;;;;;5122928;27;20054;-53
2022/05/25 12:55:42;;;;;;;6.75;2.92;;;;;;;;;;5116343;27;20523;-47
2022/05/25 12:58:09;;;;;;;7.45;1.08;;;;;;;;;;5119414;27;20077;-52
2022/05/25 13:00:39;;;;;;;4.70;1.90;;;;;;;;;;5117755;27;20042;-55
2022/05/25 13:03:23;;;;;;;3.53;1.70;;;;;;;;;;5116612;27;20538;-53
2022/05/25 13:05:52;;;;;;;9.68;1.92;;;;;;;;;;5114818;27;20276;-54
2022/05/25 13:08:36;;;;;;;7.18;1.33;;;;;;;;;;5116847;27;20039;-54
2022/05/25 13:11:01;;;;;;;19.88;3.55;;;;;;;;;;5108491;27;20135;-52
2022/05/25 13:13:32;;;;;;;5.40;1.73;;;;;;;;;;5106372;27;20143;-53
2022/05/25 13:15:58;;;;;;;7.97;2.75;;;;;;;;;;5117401;27;20051;-54
2022/05/25 13:18:42;;;;;;;51.80;7.05;;;;;;;;;;5115109;27;20047;-53
2022/05/25 13:21:07;;;;;;;17.08;4.00;;;;;;;;;;5117590;27;20039;-54
2022/05/25 13:23:58;;;;;;;150.40;38.78;;;;;;;;;;5118328;27;20228;-54
2022/05/25 13:26:39;;;;;;;42.00;10.30;;;;;;;;;;5113632;27;20134;-51
2022/05/25 13:29:08;;;;;;;124.32;28.88;;;;;;;;;;5117308;27;20043;-54
2022/05/25 13:31:40;;;;;;;6.88;2.45;;;;;;;;;;5118987;27;20124;-55
2022/05/25 13:34:17;;;;;;;20.77;4.10;;;;;;;;;;5118967;27;20046;-56
2022/05/25 13:36:44;;;;;;;22.42;4.15;;;;;;;;;;5116540;27;20142;-55
2022/05/25 13:39:14;;;;;;;9.95;2.67;;;;;;;;;;5118371;27;20039;-55
2022/05/25 13:41:42;;;;;;;6.45;2.08;;;;;;;;;;5108166;27;20095;-52
2022/05/25 13:44:12;;;;;;;12.30;2.42;;;;;;;;;;5115997;27;20032;-53
2022/05/25 13:46:56;;;;;;;4.97;2.22;;;;;;;;;;5109674;27;20047;-53
2022/05/25 13:49:22;;;;;;;7.43;1.85;;;;;;;;;;5110287;27;20047;-53
2022/05/25 13:51:48;;;;;;;5.28;1.17;;;;;;;;;;5117155;27;20644;-52
2022/05/25 13:54:19;;;;;;;5.95;1.90;;;;;;;;;;5115932;27;20524;-53
2022/05/25 13:56:44;;;;;;;4.88;2.88;;;;;;;;;;5113177;27;20051;-53
2022/05/25 13:59:11;;;;;;;3.38;1.00;;;;;;;;;;5115644;27;20032;-54
2022/05/25 14:01:36;;;;;;;4.00;1.15;;;;;;;;;;5117833;27;20047;-49
2022/05/25 14:04:06;;;;;;;11.48;4.70;;;;;;;;;;5116875;27;20047;-53
2022/05/25 14:06:38;;;;;;;2.88;1.05;;;;;;;;;;5117910;27;20039;-51
2022/05/25 14:11:49;;;;;;;4.25;1.58;;;;;;;;;;5116231;27;20111;-52
2022/05/25 14:14:29;;;;;;;2.22;1.23;;;;;;;;;;5118373;27;20047;-55
2022/05/25 14:16:56;;;;;;;3.10;1.20;;;;;;;;;;5117207;27;20047;-55
2022/05/25 14:19:23;;;;;;;6.72;1.85;;;;;;;;;;5104645;27;20082;-50
2022/05/25 14:21:50;;;;;;;10.30;2.20;;;;;;;;;;5111707;27;20043;-53
2022/05/25 14:24:22;;;;;;;9.30;1.20;;;;;;;;;;5115446;27;20039;-52
2022/05/25 14:26:52;;;;;;;2.58;0.95;;;;;;;;;;5116544;27;20047;-54
2022/05/25 14:29:19;;;;;;;4.90;1.83;;;;;;;;;;5113436;27;20047;-52
2022/05/25 14:31:46;;;;;;;2.75;0.73;;;;;;;;;;5114773;27;20043;-55
2022/05/25 14:34:13;;;;;;;7.38;2.00;;;;;;;;;;5105709;27;20134;-53
2022/05/25 14:36:39;;;;;;;7.80;1.73;;;;;;;;;;5105384;27;20145;-51
2022/05/25 14:39:05;;;;;;;2.83;0.95;;;;;;;;;;5113704;27;20035;-52
2022/05/25 14:41:50;;;;;;;5.35;2.03;;;;;;;;;;5110402;28;20130;-53
2022/05/25 14:44:39;;;;;;;2.70;0.95;;;;;;;;;;5118364;28;20031;-53
2022/05/25 14:47:12;;;;;;;1.98;1.00;;;;;;;;;;5113737;27;20180;-52
2022/05/25 14:49:37;;;;;;;1.23;0.55;;;;;;;;;;5115792;28;20047;-54
2022/05/25 14:52:09;;;;;;;6.70;1.63;;;;;;;;;;5114865;28;20126;-53
2022/05/25 14:54:34;;;;;;;0.55;0.17;;;;;;;;;;5116121;28;20127;-54
2022/05/25 14:57:02;;;;;;;4.65;0.77;;;;;;;;;;5118034;28;20067;-54
2022/05/25 14:59:35;;;;;;;3.00;1.45;;;;;;;;;;5115773;28;20043;-54
2022/05/25 15:02:01;;;;;;;2.65;0.98;;;;;;;;;;5121070;28;20055;-56
2022/05/25 15:04:36;;;;;;;1.40;0.40;;;;;;;;;;5118857;28;20126;-54
2022/05/25 15:07:02;;;;;;;2.17;0.47;;;;;;;;;;5120090;28;20146;-53
2022/05/25 15:09:33;;;;;;;0.25;0.25;;;;;;;;;;5117207;28;20162;-55
2022/05/25 15:12:03;;;;;;;37.20;2.05;;;;;;;;;;5107145;27;20050;-52
2022/05/25 15:20:04;;;;;;;2.42;0.35;;;;;;;;;;5121146;28;20494;-53
2022/05/25 15:22:30;;;;;;;1.70;0.68;;;;;;;;;;5117968;28;20114;-54
2022/05/25 15:25:00;;;;;;;2.28;0.77;;;;;;;;;;5119595;28;20529;-53
2022/05/25 15:27:31;;;;;;;1.88;1.00;;;;;;;;;;5110394;28;20043;-54